sensor_id;sensor_type;location;lat;lon;timestamp;pressure;altitude;pressure_sealevel;temperature;humidity
67457;BME280;54319;52.038;4.640;2023-08-17T00:00:57;102207.44;;;17.31;96.33
67457;BME280;54319;52.038;4.640;2023-08-17T00:03:23;102207.44;;;17.31;96.66
67457;BME280;54319;52.038;4.640;2023-08-17T00:05:50;102209.19;;;17.25;95.81
67457;BME280;54319;52.038;4.640;2023-08-17T00:08:16;102210.47;;;17.23;97.43
67457;BME280;54319;52.038;4.640;2023-08-17T00:10:42;102211.53;;;17.21;97.70
67457;BME280;54319;52.038;4.640;2023-08-17T00:13:09;102209.22;;;17.18;96.57
67457;BME280;54319;52.038;4.640;2023-08-17T00:15:37;102212.00;;;17.18;97.32
67457;BME280;54319;52.038;4.640;2023-08-17T00:18:05;102213.69;;;17.19;96.92
67457;BME280;54319;52.038;4.640;2023-08-17T00:20:31;102213.44;;;17.21;96.17
67457;BME280;54319;52.038;4.640;2023-08-17T00:22:58;102210.06;;;17.19;95.17
67457;BME280;54319;52.038;4.640;2023-08-17T00:25:24;102204.34;;;17.20;95.87
67457;BME280;54319;52.038;4.640;2023-08-17T00:27:51;102202.41;;;17.21;94.88
67457;BME280;54319;52.038;4.640;2023-08-17T00:30:17;102206.66;;;17.24;96.09
67457;BME280;54319;52.038;4.640;2023-08-17T00:32:44;102207.94;;;17.21;95.53
67457;BME280;54319;52.038;4.640;2023-08-17T00:35:12;102214.06;;;17.23;95.29
67457;BME280;54319;52.038;4.640;2023-08-17T00:37:38;102210.69;;;17.21;94.70
67457;BME280;54319;52.038;4.640;2023-08-17T00:40:05;102216.00;;;17.23;94.79
67457;BME280;54319;52.038;4.640;2023-08-17T00:42:31;102210.47;;;17.23;95.11
67457;BME280;54319;52.038;4.640;2023-08-17T00:44:58;102209.63;;;17.22;95.10
67457;BME280;54319;52.038;4.640;2023-08-17T00:47:24;102216.81;;;17.23;94.99
67457;BME280;54319;52.038;4.640;2023-08-17T00:49:51;102209.63;;;17.22;94.64
67457;BME280;54319;52.038;4.640;2023-08-17T00:52:19;102204.97;;;17.23;95.19
67457;BME280;54319;52.038;4.640;2023-08-17T00:54:45;102204.56;;;17.19;94.13
67457;BME280;54319;52.038;4.640;2023-08-17T00:57:12;102205.00;;;17.16;94.14
67457;BME280;54319;52.038;4.640;2023-08-17T00:59:39;102197.19;;;17.13;95.33
67457;BME280;54319;52.038;4.640;2023-08-17T01:02:06;102197.88;;;17.08;95.24
67457;BME280;54319;52.038;4.640;2023-08-17T01:04:33;102197.91;;;17.01;94.78
67457;BME280;54319;52.038;4.640;2023-08-17T01:07:00;102203.41;;;17.01;95.21
67457;BME280;54319;52.038;4.640;2023-08-17T01:09:27;102203.84;;;16.98;95.12
67457;BME280;54319;52.038;4.640;2023-08-17T01:11:56;102212.13;;;16.98;95.23
67457;BME280;54319;52.038;4.640;2023-08-17T01:14:26;102203.41;;;16.95;96.00
67457;BME280;54319;52.038;4.640;2023-08-17T01:16:56;102210.22;;;16.92;96.80
67457;BME280;54319;52.038;4.640;2023-08-17T01:19:24;102202.41;;;16.89;96.59
67457;BME280;54319;52.038;4.640;2023-08-17T01:21:51;102209.19;;;16.86;96.60
67457;BME280;54319;52.038;4.640;2023-08-17T01:24:21;102210.06;;;16.87;95.65
67457;BME280;54319;52.038;4.640;2023-08-17T01:26:48;102210.91;;;16.81;95.40
67457;BME280;54319;52.038;4.640;2023-08-17T01:29:15;102208.16;;;16.81;96.29
67457;BME280;54319;52.038;4.640;2023-08-17T01:31:47;102211.16;;;16.79;97.20
67457;BME280;54319;52.038;4.640;2023-08-17T01:34:19;102213.28;;;16.77;97.37
67457;BME280;54319;52.038;4.640;2023-08-17T01:36:50;102213.72;;;16.74;96.37
67457;BME280;54319;52.038;4.640;2023-08-17T01:39:18;102206.53;;;16.73;97.43
67457;BME280;54319;52.038;4.640;2023-08-17T01:41:48;102203.16;;;16.71;97.61
67457;BME280;54319;52.038;4.640;2023-08-17T01:44:14;102198.91;;;16.68;97.04
67457;BME280;54319;52.038;4.640;2023-08-17T01:46:41;102198.91;;;16.68;98.31
67457;BME280;54319;52.038;4.640;2023-08-17T01:49:07;102195.75;;;16.64;98.04
67457;BME280;54319;52.038;4.640;2023-08-17T01:51:34;102200.63;;;16.62;98.38
67457;BME280;54319;52.038;4.640;2023-08-17T01:54:00;102188.81;;;16.55;98.75
67457;BME280;54319;52.038;4.640;2023-08-17T01:56:26;102195.00;;;16.51;99.05
67457;BME280;54319;52.038;4.640;2023-08-17T01:58:54;102193.50;;;16.48;99.77
67457;BME280;54319;52.038;4.640;2023-08-17T02:01:21;102194.38;;;16.42;99.81
67457;BME280;54319;52.038;4.640;2023-08-17T02:03:47;102188.47;;;16.38;99.17
67457;BME280;54319;52.038;4.640;2023-08-17T02:06:13;102194.63;;;16.33;100.00
67457;BME280;54319;52.038;4.640;2023-08-17T02:08:40;102197.81;;;16.30;100.00
67457;BME280;54319;52.038;4.640;2023-08-17T02:11:07;102201.66;;;16.29;100.00
67457;BME280;54319;52.038;4.640;2023-08-17T02:13:34;102199.53;;;16.25;100.00
67457;BME280;54319;52.038;4.640;2023-08-17T02:16:03;102198.91;;;16.23;100.00
67457;BME280;54319;52.038;4.640;2023-08-17T02:18:30;102192.34;;;16.17;100.00
67457;BME280;54319;52.038;4.640;2023-08-17T02:20:58;102199.34;;;16.13;100.00
67457;BME280;54319;52.038;4.640;2023-08-17T02:23:25;102193.66;;;16.08;100.00
67457;BME280;54319;52.038;4.640;2023-08-17T02:25:51;102188.59;;;16.04;100.00
67457;BME280;54319;52.038;4.640;2023-08-17T02:28:17;102193.47;;;16.02;100.00
67457;BME280;54319;52.038;4.640;2023-08-17T02:30:44;102198.34;;;16.00;100.00
67457;BME280;54319;52.038;4.640;2023-08-17T02:33:12;102193.91;;;15.99;100.00
67457;BME280;54319;52.038;4.640;2023-08-17T02:35:39;102190.09;;;16.00;100.00
67457;BME280;54319;52.038;4.640;2023-08-17T02:38:05;102189.84;;;16.02;100.00
67457;BME280;54319;52.038;4.640;2023-08-17T02:40:32;102191.34;;;16.04;100.00
67457;BME280;54319;52.038;4.640;2023-08-17T02:42:58;102186.91;;;16.03;100.00
67457;BME280;54319;52.038;4.640;2023-08-17T02:45:25;102189.84;;;16.09;100.00
67457;BME280;54319;52.038;4.640;2023-08-17T02:47:51;102179.66;;;16.09;100.00
67457;BME280;54319;52.038;4.640;2023-08-17T02:50:19;102170.75;;;16.14;100.00
67457;BME280;54319;52.038;4.640;2023-08-17T02:52:45;102183.69;;;16.13;100.00
67457;BME280;54319;52.038;4.640;2023-08-17T02:55:12;102175.00;;;16.16;100.00
67457;BME280;54319;52.038;4.640;2023-08-17T02:57:38;102184.28;;;16.22;100.00
67457;BME280;54319;52.038;4.640;2023-08-17T03:00:05;102173.50;;;16.20;100.00
67457;BME280;54319;52.038;4.640;2023-08-17T03:02:31;102185.97;;;16.23;100.00
67457;BME280;54319;52.038;4.640;2023-08-17T03:04:58;102181.31;;;16.24;100.00
67457;BME280;54319;52.038;4.640;2023-08-17T03:07:26;102176.44;;;16.26;100.00
67457;BME280;54319;52.038;4.640;2023-08-17T03:09:52;102183.63;;;16.27;100.00
67457;BME280;54319;52.038;4.640;2023-08-17T03:12:18;102175.16;;;16.28;100.00
67457;BME280;54319;52.038;4.640;2023-08-17T03:14:45;102181.94;;;16.32;100.00
67457;BME280;54319;52.038;4.640;2023-08-17T03:17:11;102172.59;;;16.33;100.00
67457;BME280;54319;52.038;4.640;2023-08-17T03:19:38;102174.06;;;16.36;100.00
67457;BME280;54319;52.038;4.640;2023-08-17T03:22:04;102177.69;;;16.37;100.00
67457;BME280;54319;52.038;4.640;2023-08-17T03:24:32;102178.75;;;16.35;100.00
67457;BME280;54319;52.038;4.640;2023-08-17T03:26:58;102180.88;;;16.33;100.00
67457;BME280;54319;52.038;4.640;2023-08-17T03:29:25;102174.94;;;16.30;100.00
67457;BME280;54319;52.038;4.640;2023-08-17T03:31:52;102175.16;;;16.28;100.00
67457;BME280;54319;52.038;4.640;2023-08-17T03:34:18;102181.72;;;16.27;100.00
67457;BME280;54319;52.038;4.640;2023-08-17T03:36:45;102190.22;;;16.26;100.00
67457;BME280;54319;52.038;4.640;2023-08-17T03:39:11;102178.34;;;16.25;100.00
67457;BME280;54319;52.038;4.640;2023-08-17T03:41:39;102178.78;;;16.22;100.00
67457;BME280;54319;52.038;4.640;2023-08-17T03:44:05;102179.84;;;16.21;100.00
67457;BME280;54319;52.038;4.640;2023-08-17T03:46:32;102178.78;;;16.22;100.00
67457;BME280;54319;52.038;4.640;2023-08-17T03:48:58;102178.78;;;16.22;100.00
67457;BME280;54319;52.038;4.640;2023-08-17T03:51:25;102179.63;;;16.23;100.00
67457;BME280;54319;52.038;4.640;2023-08-17T03:53:51;102169.06;;;16.19;100.00
67457;BME280;54319;52.038;4.640;2023-08-17T03:56:18;102170.13;;;16.18;100.00
67457;BME280;54319;52.038;4.640;2023-08-17T03:58:46;102167.56;;;16.17;100.00
67457;BME280;54319;52.038;4.640;2023-08-17T04:01:12;102160.81;;;16.13;100.00
67457;BME280;54319;52.038;4.640;2023-08-17T04:03:39;102170.13;;;16.12;100.00
67457;BME280;54319;52.038;4.640;2023-08-17T04:06:05;102173.31;;;16.09;100.00
67457;BME280;54319;52.038;4.640;2023-08-17T04:08:32;102162.75;;;16.12;100.00
67457;BME280;54319;52.038;4.640;2023-08-17T04:10:58;102170.75;;;16.14;100.00
67457;BME280;54319;52.038;4.640;2023-08-17T04:13:25;102160.38;;;16.16;100.00
67457;BME280;54319;52.038;4.640;2023-08-17T04:15:53;102163.75;;;16.18;100.00
67457;BME280;54319;52.038;4.640;2023-08-17T04:18:20;102174.56;;;16.19;100.00
67457;BME280;54319;52.038;4.640;2023-08-17T04:20:46;102168.81;;;16.21;100.00
67457;BME280;54319;52.038;4.640;2023-08-17T04:23:13;102179.84;;;16.21;100.00
67457;BME280;54319;52.038;4.640;2023-08-17T04:25:39;102175.59;;;16.25;100.00
67457;BME280;54319;52.038;4.640;2023-08-17T04:28:06;102172.00;;;16.25;100.00
67457;BME280;54319;52.038;4.640;2023-08-17T04:30:32;102169.88;;;16.27;100.00
67457;BME280;54319;52.038;4.640;2023-08-17T04:33:00;102169.88;;;16.27;100.00
67457;BME280;54319;52.038;4.640;2023-08-17T04:35:27;102180.88;;;16.27;100.00
67457;BME280;54319;52.038;4.640;2023-08-17T04:37:53;102174.31;;;16.28;100.00
67457;BME280;54319;52.038;4.640;2023-08-17T04:40:20;102174.94;;;16.30;100.00
67457;BME280;54319;52.038;4.640;2023-08-17T04:42:46;102183.19;;;16.30;100.00
67457;BME280;54319;52.038;4.640;2023-08-17T04:45:12;102185.75;;;16.31;100.00
67457;BME280;54319;52.038;4.640;2023-08-17T04:47:39;102181.94;;;16.32;100.00
67457;BME280;54319;52.038;4.640;2023-08-17T04:50:07;102180.44;;;16.37;100.00
67457;BME280;54319;52.038;4.640;2023-08-17T04:52:34;102181.69;;;16.41;100.00
67457;BME280;54319;52.038;4.640;2023-08-17T04:55:00;102180.63;;;16.42;100.00
67457;BME280;54319;52.038;4.640;2023-08-17T04:57:26;102182.69;;;16.46;100.00
67457;BME280;54319;52.038;4.640;2023-08-17T04:59:53;102175.50;;;16.45;100.00
67457;BME280;54319;52.038;4.640;2023-08-17T05:02:20;102175.28;;;16.47;100.00
67457;BME280;54319;52.038;4.640;2023-08-17T05:04:46;102171.47;;;16.48;100.00
67457;BME280;54319;52.038;4.640;2023-08-17T05:07:14;102161.53;;;16.47;100.00
67457;BME280;54319;52.038;4.640;2023-08-17T05:09:41;102156.84;;;16.47;100.00
67457;BME280;54319;52.038;4.640;2023-08-17T05:12:07;102156.00;;;16.47;100.00
67457;BME280;54319;52.038;4.640;2023-08-17T05:14:34;102151.13;;;16.49;100.00
67457;BME280;54319;52.038;4.640;2023-08-17T05:17:00;102146.25;;;16.51;100.00
67457;BME280;54319;52.038;4.640;2023-08-17T05:19:27;102145.78;;;16.54;100.00
67457;BME280;54319;52.038;4.640;2023-08-17T05:21:53;102143.66;;;16.56;100.00
67457;BME280;54319;52.038;4.640;2023-08-17T05:24:21;102149.34;;;16.61;100.00
67457;BME280;54319;52.038;4.640;2023-08-17T05:26:47;102145.09;;;16.66;100.00
67457;BME280;54319;52.038;4.640;2023-08-17T05:29:14;102155.69;;;16.69;100.00
67457;BME280;54319;52.038;4.640;2023-08-17T05:31:40;102159.44;;;16.74;100.00
67457;BME280;54319;52.038;4.640;2023-08-17T05:34:06;102155.59;;;16.82;100.00
67457;BME280;54319;52.038;4.640;2023-08-17T05:36:33;102155.56;;;16.89;100.00
67457;BME280;54319;52.038;4.640;2023-08-17T05:38:59;102158.03;;;16.97;100.00
67457;BME280;54319;52.038;4.640;2023-08-17T05:41:27;102165.84;;;17.07;100.00
67457;BME280;54319;52.038;4.640;2023-08-17T05:43:53;102162.19;;;17.13;99.38
67457;BME280;54319;52.038;4.640;2023-08-17T05:46:20;102161.75;;;17.16;98.91
67457;BME280;54319;52.038;4.640;2023-08-17T05:48:46;102169.56;;;17.19;99.26
67457;BME280;54319;52.038;4.640;2023-08-17T05:51:13;102166.34;;;17.23;99.67
67457;BME280;54319;52.038;4.640;2023-08-17T05:53:39;102170.97;;;17.29;99.33
67457;BME280;54319;52.038;4.640;2023-08-17T05:56:06;102179.03;;;17.30;98.46
67457;BME280;54319;52.038;4.640;2023-08-17T05:58:34;102173.44;;;17.37;98.71
67457;BME280;54319;52.038;4.640;2023-08-17T06:01:04;102176.75;;;17.46;99.00
67457;BME280;54319;52.038;4.640;2023-08-17T06:03:31;102184.81;;;17.47;97.91
67457;BME280;54319;52.038;4.640;2023-08-17T06:05:57;102178.84;;;17.50;98.03
67457;BME280;54319;52.038;4.640;2023-08-17T06:08:24;102176.47;;;17.54;98.56
67457;BME280;54319;52.038;4.640;2023-08-17T06:10:50;102180.69;;;17.57;97.61
67457;BME280;54319;52.038;4.640;2023-08-17T06:13:17;102177.03;;;17.63;98.12
67457;BME280;54319;52.038;4.640;2023-08-17T06:15:44;102175.66;;;17.72;97.90
67457;BME280;54319;52.038;4.640;2023-08-17T06:18:11;102181.56;;;17.76;97.29
67457;BME280;54319;52.038;4.640;2023-08-17T06:20:37;102188.72;;;17.84;97.63
67457;BME280;54319;52.038;4.640;2023-08-17T06:23:04;102181.41;;;17.89;96.16
67457;BME280;54319;52.038;4.640;2023-08-17T06:25:30;102196.69;;;17.92;95.59
67457;BME280;54319;52.038;4.640;2023-08-17T06:27:57;102182.66;;;17.93;96.45
67457;BME280;54319;52.038;4.640;2023-08-17T06:30:23;102198.13;;;17.94;95.19
67457;BME280;54319;52.038;4.640;2023-08-17T06:32:51;102193.22;;;17.97;95.14
67457;BME280;54319;52.038;4.640;2023-08-17T06:35:18;102189.81;;;18.01;97.01
67457;BME280;54319;52.038;4.640;2023-08-17T06:37:44;102192.13;;;18.04;96.37
67457;BME280;54319;52.038;4.640;2023-08-17T06:40:11;102189.97;;;18.06;96.88
67457;BME280;54319;52.038;4.640;2023-08-17T06:42:37;102190.59;;;18.08;97.62
67457;BME280;54319;52.038;4.640;2023-08-17T06:45:04;102196.50;;;18.12;98.21
67457;BME280;54319;52.038;4.640;2023-08-17T06:47:31;102193.75;;;18.12;97.33
67457;BME280;54319;52.038;4.640;2023-08-17T06:49:59;102198.13;;;18.20;97.48
67457;BME280;54319;52.038;4.640;2023-08-17T06:52:25;102190.44;;;18.22;96.32
67457;BME280;54319;52.038;4.640;2023-08-17T06:54:51;102198.28;;;18.25;96.30
67457;BME280;54319;52.038;4.640;2023-08-17T06:57:18;102195.50;;;18.25;94.83
67457;BME280;54319;52.038;4.640;2023-08-17T06:59:46;102180.63;;;18.26;95.25
67457;BME280;54319;52.038;4.640;2023-08-17T07:02:13;102189.66;;;18.33;94.32
67457;BME280;54319;52.038;4.640;2023-08-17T07:04:39;102180.72;;;18.50;94.47
67457;BME280;54319;52.038;4.640;2023-08-17T07:07:07;102182.84;;;18.66;94.04
67457;BME280;54319;52.038;4.640;2023-08-17T07:09:34;102182.91;;;18.78;93.21
67457;BME280;54319;52.038;4.640;2023-08-17T07:12:00;102184.00;;;18.89;93.19
67457;BME280;54319;52.038;4.640;2023-08-17T07:14:26;102187.09;;;19.00;92.75
67457;BME280;54319;52.038;4.640;2023-08-17T07:16:53;102181.44;;;19.06;91.30
67457;BME280;54319;52.038;4.640;2023-08-17T07:19:21;102189.41;;;19.27;91.85
67457;BME280;54319;52.038;4.640;2023-08-17T07:21:48;102194.84;;;19.45;91.61
67457;BME280;54319;52.038;4.640;2023-08-17T07:24:16;102197.38;;;19.59;90.50
67457;BME280;54319;52.038;4.640;2023-08-17T07:26:42;102192.91;;;20.05;86.55
67457;BME280;54319;52.038;4.640;2023-08-17T07:29:09;102195.00;;;20.51;84.00
67457;BME280;54319;52.038;4.640;2023-08-17T07:31:36;102194.66;;;21.22;78.79
67457;BME280;54319;52.038;4.640;2023-08-17T07:34:03;102200.91;;;21.64;75.81
67457;BME280;54319;52.038;4.640;2023-08-17T07:36:29;102205.28;;;21.99;76.00
67457;BME280;54319;52.038;4.640;2023-08-17T07:38:56;102198.16;;;22.48;72.79
67457;BME280;54319;52.038;4.640;2023-08-17T07:41:24;102196.72;;;23.27;69.58
67457;BME280;54319;52.038;4.640;2023-08-17T07:43:50;102196.34;;;23.99;65.99
67457;BME280;54319;52.038;4.640;2023-08-17T07:46:17;102208.59;;;24.62;62.18
67457;BME280;54319;52.038;4.640;2023-08-17T07:48:43;102204.25;;;24.87;59.68
67457;BME280;54319;52.038;4.640;2023-08-17T07:51:09;102198.88;;;24.65;60.34
67457;BME280;54319;52.038;4.640;2023-08-17T07:53:36;102192.03;;;23.76;62.15
67457;BME280;54319;52.038;4.640;2023-08-17T07:56:02;102182.44;;;23.51;64.58
67457;BME280;54319;52.038;4.640;2023-08-17T07:58:30;102180.56;;;23.24;64.69
67457;BME280;54319;52.038;4.640;2023-08-17T08:00:57;102186.84;;;23.15;65.82
67457;BME280;54319;52.038;4.640;2023-08-17T08:03:23;102194.75;;;22.95;67.41
67457;BME280;54319;52.038;4.640;2023-08-17T08:05:50;102191.06;;;22.62;70.51
67457;BME280;54319;52.038;4.640;2023-08-17T08:08:16;102187.25;;;22.24;71.08
67457;BME280;54319;52.038;4.640;2023-08-17T08:10:45;102189.09;;;21.96;72.12
67457;BME280;54319;52.038;4.640;2023-08-17T08:13:11;102185.91;;;21.65;73.52
67457;BME280;54319;52.038;4.640;2023-08-17T08:15:39;102197.59;;;21.67;75.20
67457;BME280;54319;52.038;4.640;2023-08-17T08:18:06;102193.03;;;21.78;74.54
67457;BME280;54319;52.038;4.640;2023-08-17T08:20:33;102183.75;;;21.89;73.71
67457;BME280;54319;52.038;4.640;2023-08-17T08:23:00;102181.44;;;21.81;73.21
67457;BME280;54319;52.038;4.640;2023-08-17T08:25:27;102181.69;;;22.02;73.81
67457;BME280;54319;52.038;4.640;2023-08-17T08:27:53;102182.81;;;22.73;72.13
67457;BME280;54319;52.038;4.640;2023-08-17T08:30:20;102180.84;;;23.66;67.95
67457;BME280;54319;52.038;4.640;2023-08-17T08:32:48;102169.72;;;24.19;65.58
67457;BME280;54319;52.038;4.640;2023-08-17T08:35:14;102181.56;;;24.52;64.65
67457;BME280;54319;52.038;4.640;2023-08-17T08:37:41;102177.44;;;24.76;63.55
67457;BME280;54319;52.038;4.640;2023-08-17T08:40:09;102177.41;;;24.70;61.99
67457;BME280;54319;52.038;4.640;2023-08-17T08:42:36;102167.31;;;24.59;63.28
67457;BME280;54319;52.038;4.640;2023-08-17T08:45:03;102160.50;;;24.19;64.13
67457;BME280;54319;52.038;4.640;2023-08-17T08:47:30;102165.50;;;24.11;63.78
67457;BME280;54319;52.038;4.640;2023-08-17T08:50:00;102167.63;;;23.89;65.02
67457;BME280;54319;52.038;4.640;2023-08-17T08:52:30;102166.94;;;23.71;65.66
67457;BME280;54319;52.038;4.640;2023-08-17T08:54:58;102161.88;;;23.58;65.78
67457;BME280;54319;52.038;4.640;2023-08-17T08:57:24;102161.97;;;23.30;66.50
67457;BME280;54319;52.038;4.640;2023-08-17T08:59:54;102164.28;;;23.11;68.26
67457;BME280;54319;52.038;4.640;2023-08-17T09:02:21;102157.63;;;22.84;68.95
67457;BME280;54319;52.038;4.640;2023-08-17T09:04:48;102159.13;;;22.97;69.58
67457;BME280;54319;52.038;4.640;2023-08-17T09:07:16;102158.38;;;22.75;68.91
67457;BME280;54319;52.038;4.640;2023-08-17T09:09:44;102154.38;;;22.93;70.58
67457;BME280;54319;52.038;4.640;2023-08-17T09:12:11;102149.75;;;23.09;71.14
67457;BME280;54319;52.038;4.640;2023-08-17T09:14:37;102144.56;;;23.18;68.76
67457;BME280;54319;52.038;4.640;2023-08-17T09:17:06;102152.13;;;23.22;68.70
67457;BME280;54319;52.038;4.640;2023-08-17T09:19:32;102150.78;;;22.97;68.69
67457;BME280;54319;52.038;4.640;2023-08-17T09:21:59;102155.06;;;22.78;68.95
67457;BME280;54319;52.038;4.640;2023-08-17T09:24:34;102150.09;;;22.80;68.68
67457;BME280;54319;52.038;4.640;2023-08-17T09:27:01;102145.19;;;22.92;68.00
67457;BME280;54319;52.038;4.640;2023-08-17T09:29:28;102150.28;;;23.06;69.02
67457;BME280;54319;52.038;4.640;2023-08-17T09:31:58;102153.75;;;23.18;69.05
67457;BME280;54319;52.038;4.640;2023-08-17T09:34:24;102144.84;;;23.16;66.85
67457;BME280;54319;52.038;4.640;2023-08-17T09:36:51;102142.72;;;23.29;68.19
67457;BME280;54319;52.038;4.640;2023-08-17T09:39:17;102144.16;;;23.04;68.09
67457;BME280;54319;52.038;4.640;2023-08-17T09:41:45;102146.97;;;23.09;67.57
67457;BME280;54319;52.038;4.640;2023-08-17T09:44:12;102137.06;;;23.18;68.27
67457;BME280;54319;52.038;4.640;2023-08-17T09:46:38;102136.84;;;23.25;67.06
67457;BME280;54319;52.038;4.640;2023-08-17T09:49:05;102133.34;;;23.40;68.25
67457;BME280;54319;52.038;4.640;2023-08-17T09:51:33;102124.22;;;23.55;67.51
67457;BME280;54319;52.038;4.640;2023-08-17T09:54:00;102126.28;;;23.75;66.70
67457;BME280;54319;52.038;4.640;2023-08-17T09:56:26;102126.94;;;23.88;66.18
67457;BME280;54319;52.038;4.640;2023-08-17T09:58:54;102119.06;;;23.79;66.51
67457;BME280;54319;52.038;4.640;2023-08-17T10:01:21;102113.69;;;23.62;65.49
67457;BME280;54319;52.038;4.640;2023-08-17T10:03:48;102119.38;;;23.35;67.76
67457;BME280;54319;52.038;4.640;2023-08-17T10:06:17;102117.59;;;23.23;67.09
67457;BME280;54319;52.038;4.640;2023-08-17T10:08:47;102115.91;;;23.60;67.82
67457;BME280;54319;52.038;4.640;2023-08-17T10:11:15;102113.44;;;23.69;68.53
67457;BME280;54319;52.038;4.640;2023-08-17T10:13:42;102122.97;;;23.78;66.94
67457;BME280;54319;52.038;4.640;2023-08-17T10:16:14;102118.25;;;23.79;67.31
67457;BME280;54319;52.038;4.640;2023-08-17T10:18:45;102124.59;;;23.69;67.51
67457;BME280;54319;52.038;4.640;2023-08-17T10:21:16;102110.09;;;23.67;66.55
67457;BME280;54319;52.038;4.640;2023-08-17T10:23:44;102112.91;;;23.72;66.57
67457;BME280;54319;52.038;4.640;2023-08-17T10:26:10;102112.38;;;23.75;66.85
67457;BME280;54319;52.038;4.640;2023-08-17T10:28:38;102101.50;;;23.74;67.32
67457;BME280;54319;52.038;4.640;2023-08-17T10:31:05;102101.88;;;23.93;66.19
67457;BME280;54319;52.038;4.640;2023-08-17T10:33:33;102103.34;;;24.06;65.05
67457;BME280;54319;52.038;4.640;2023-08-17T10:36:00;102105.31;;;24.21;64.54
67457;BME280;54319;52.038;4.640;2023-08-17T10:38:26;102105.84;;;24.07;64.82
67457;BME280;54319;52.038;4.640;2023-08-17T10:41:08;102111.06;;;23.98;64.32
67457;BME280;54319;52.038;4.640;2023-08-17T10:46:17;102113.19;;;24.34;65.27
67457;BME280;54319;52.038;4.640;2023-08-17T10:48:45;102107.06;;;24.48;63.47
67457;BME280;54319;52.038;4.640;2023-08-17T10:51:11;102108.22;;;24.67;63.08
67457;BME280;54319;52.038;4.640;2023-08-17T10:53:38;102122.13;;;24.47;63.69
67457;BME280;54319;52.038;4.640;2023-08-17T10:56:08;102114.06;;;24.55;63.58
67457;BME280;54319;52.038;4.640;2023-08-17T10:58:36;102110.47;;;24.81;64.33
67457;BME280;54319;52.038;4.640;2023-08-17T11:01:03;102114.38;;;24.90;63.12
67457;BME280;54319;52.038;4.640;2023-08-17T11:03:29;102114.38;;;24.80;63.07
67457;BME280;54319;52.038;4.640;2023-08-17T11:05:57;102113.81;;;24.78;63.51
67457;BME280;54319;52.038;4.640;2023-08-17T11:08:27;102106.84;;;24.75;63.41
67457;BME280;54319;52.038;4.640;2023-08-17T11:10:56;102097.63;;;24.75;61.85
67457;BME280;54319;52.038;4.640;2023-08-17T11:13:23;102110.19;;;24.98;62.98
67457;BME280;54319;52.038;4.640;2023-08-17T11:15:50;102090.84;;;25.38;60.13
67457;BME280;54319;52.038;4.640;2023-08-17T11:18:16;102089.41;;;25.71;60.25
67457;BME280;54319;52.038;4.640;2023-08-17T11:20:43;102087.97;;;25.74;57.65
67457;BME280;54319;52.038;4.640;2023-08-17T11:23:11;102085.84;;;25.29;59.74
67457;BME280;54319;52.038;4.640;2023-08-17T11:25:37;102084.72;;;25.36;61.11
67457;BME280;54319;52.038;4.640;2023-08-17T11:28:06;102082.53;;;25.22;60.74
67457;BME280;54319;52.038;4.640;2023-08-17T11:30:33;102087.84;;;25.08;60.45
67457;BME280;54319;52.038;4.640;2023-08-17T11:33:01;102085.34;;;25.17;60.81
67457;BME280;54319;52.038;4.640;2023-08-17T11:35:27;102075.28;;;25.16;59.56
67457;BME280;54319;52.038;4.640;2023-08-17T11:37:54;102085.91;;;25.04;61.03
67457;BME280;54319;52.038;4.640;2023-08-17T11:40:22;102091.19;;;25.15;62.33
67457;BME280;54319;52.038;4.640;2023-08-17T11:42:48;102095.94;;;25.15;63.07
67457;BME280;54319;52.038;4.640;2023-08-17T11:45:15;102092.59;;;25.13;62.54
67457;BME280;54319;52.038;4.640;2023-08-17T11:47:42;102092.06;;;25.00;62.16
67457;BME280;54319;52.038;4.640;2023-08-17T11:50:11;102080.91;;;25.00;62.02
67457;BME280;54319;52.038;4.640;2023-08-17T11:52:38;102084.78;;;24.99;60.88
67457;BME280;54319;52.038;4.640;2023-08-17T11:55:05;102080.03;;;25.05;62.72
67457;BME280;54319;52.038;4.640;2023-08-17T11:57:33;102080.31;;;25.14;62.66
67457;BME280;54319;52.038;4.640;2023-08-17T12:00:00;102086.16;;;25.18;61.43
67457;BME280;54319;52.038;4.640;2023-08-17T12:02:28;102088.69;;;25.14;60.71
67457;BME280;54319;52.038;4.640;2023-08-17T12:04:55;102088.44;;;24.95;60.82
67457;BME280;54319;52.038;4.640;2023-08-17T12:07:21;102085.09;;;24.82;62.43
67457;BME280;54319;52.038;4.640;2023-08-17T12:09:49;102087.88;;;24.88;62.69
67457;BME280;54319;52.038;4.640;2023-08-17T12:12:17;102069.16;;;25.04;64.10
67457;BME280;54319;52.038;4.640;2023-08-17T12:14:45;102070.25;;;25.13;61.51
67457;BME280;54319;52.038;4.640;2023-08-17T12:17:13;102077.78;;;25.18;61.29
67457;BME280;54319;52.038;4.640;2023-08-17T12:19:40;102080.28;;;25.24;61.77
67457;BME280;54319;52.038;4.640;2023-08-17T12:22:06;102075.53;;;25.30;62.05
67457;BME280;54319;52.038;4.640;2023-08-17T12:24:33;102078.34;;;25.14;62.21
67457;BME280;54319;52.038;4.640;2023-08-17T12:27:01;102080.88;;;24.85;61.74
67457;BME280;54319;52.038;4.640;2023-08-17T12:29:28;102088.13;;;24.70;64.54
67457;BME280;54319;52.038;4.640;2023-08-17T12:31:57;102085.03;;;24.62;65.24
67457;BME280;54319;52.038;4.640;2023-08-17T12:34:24;102089.75;;;24.51;64.97
67457;BME280;54319;52.038;4.640;2023-08-17T12:36:50;102081.41;;;24.40;64.32
67457;BME280;54319;52.038;4.640;2023-08-17T12:39:17;102094.19;;;24.26;65.33
67457;BME280;54319;52.038;4.640;2023-08-17T12:41:43;102088.88;;;24.14;65.29
67457;BME280;54319;52.038;4.640;2023-08-17T12:44:10;102093.03;;;24.17;66.72
67457;BME280;54319;52.038;4.640;2023-08-17T12:46:38;102085.56;;;24.27;65.33
67457;BME280;54319;52.038;4.640;2023-08-17T12:49:06;102084.44;;;24.23;65.97